Time;durP1;ratioP1;P1;durP2;ratioP2;P2;SDS_P1;SDS_P2;PMS_P1;PMS_P2;Temp;Humidity;BMP_temperature;BMP_pressure;BME280_temperature;BME280_humidity;BME280_pressure;Samples;Min_cycle;Max_cycle;Signal;HPM_P1;HPM_P2
2020/12/31 15:25:31;;;;;;;5.93;3.63;;;;;;;3.96;68.38;99341.78;5118087;27;20376;-79
2020/12/31 15:27:56;;;;;;;7.32;4.07;;;;;;;3.73;70.61;99334.34;5081596;28;20054;-80
2020/12/31 15:30:22;;;;;;;7.05;4.22;;;;;;;3.28;73.21;99344.13;5096706;28;20022;-81
2020/12/31 15:32:47;;;;;;;7.65;4.90;;;;;;;2.82;74.68;99339.34;5104830;28;20023;-80
2020/12/31 15:35:12;;;;;;;6.90;4.47;;;;;;;2.80;75.33;99341.06;5118861;28;20126;-80
2020/12/31 15:37:40;;;;;;;8.30;5.65;;;;;;;2.22;78.08;99343.97;5084031;28;20368;-80
2020/12/31 15:40:06;;;;;;;8.40;5.30;;;;;;;2.14;79.35;99343.13;5119038;28;20027;-80
2020/12/31 15:42:31;;;;;;;8.25;5.57;;;;;;;1.96;79.70;99337.22;5081898;28;20039;-80
2020/12/31 15:44:56;;;;;;;9.93;6.18;;;;;;;1.93;80.46;99347.44;5081551;28;20016;-80
2020/12/31 15:47:22;;;;;;;9.43;5.68;;;;;;;1.96;80.57;99341.47;5099237;28;20460;-80
2020/12/31 15:49:48;;;;;;;9.30;5.85;;;;;;;1.85;81.00;99338.97;5082569;28;20020;-80
2020/12/31 15:52:13;;;;;;;7.97;6.03;;;;;;;1.81;81.08;99337.25;5099824;28;20452;-80
2020/12/31 15:54:38;;;;;;;8.70;5.70;;;;;;;1.79;81.59;99341.53;5114164;28;20023;-79
2020/12/31 15:57:04;;;;;;;8.85;5.80;;;;;;;1.70;80.87;99333.91;5098784;28;20110;-79
2020/12/31 15:59:29;;;;;;;9.65;6.22;;;;;;;1.72;81.57;99332.16;5097553;28;20469;-79
2020/12/31 16:01:55;;;;;;;9.90;6.50;;;;;;;1.64;82.62;99336.47;5097260;28;20107;-80
2020/12/31 16:04:20;;;;;;;10.27;6.80;;;;;;;1.62;83.08;99331.34;5115274;28;20225;-79
2020/12/31 16:06:50;;;;;;;11.50;6.82;;;;;;;1.59;83.27;99342.41;5081155;28;20470;-79
2020/12/31 16:09:15;;;;;;;12.13;7.20;;;;;;;1.58;83.35;99340.72;5099254;28;20030;-80
2020/12/31 16:11:41;;;;;;;11.73;7.32;;;;;;;1.57;83.53;99339.03;5080535;28;20020;-80
2020/12/31 16:14:07;;;;;;;11.40;7.82;;;;;;;1.58;83.30;99339.88;5082261;28;20095;-81
2020/12/31 16:16:32;;;;;;;11.23;7.40;;;;;;;1.54;83.60;99344.16;5098642;28;20111;-80
2020/12/31 16:18:57;;;;;;;12.27;7.55;;;;;;;1.54;83.92;99339.03;5098775;28;20110;-80
2020/12/31 16:21:23;;;;;;;11.98;7.57;;;;;;;1.53;83.95;99336.47;5098109;28;20106;-80
2020/12/31 16:23:48;;;;;;;13.45;8.52;;;;;;;1.50;84.24;99339.88;5097554;28;20142;-81
2020/12/31 16:26:14;;;;;;;13.13;7.60;;;;;;;1.50;84.28;99342.41;5097121;28;20118;-80
2020/12/31 16:28:39;;;;;;;11.15;7.40;;;;;;;1.50;83.63;99341.56;5097898;28;20058;-80
2020/12/31 16:31:04;;;;;;;12.38;8.40;;;;;;;1.52;84.12;99340.72;5115207;28;20448;-80
2020/12/31 16:33:30;;;;;;;11.30;7.55;;;;;;;1.49;84.16;99340.72;5098937;28;20104;-80
2020/12/31 16:35:55;;;;;;;10.73;7.47;;;;;;;1.51;84.16;99340.72;5090588;28;20087;-80
2020/12/31 16:38:20;;;;;;;11.40;7.88;;;;;;;1.51;84.50;99339.03;5069305;28;20031;-80
2020/12/31 16:40:46;;;;;;;12.43;8.90;;;;;;;1.47;84.13;99334.75;5085825;28;20035;-81
2020/12/31 16:43:11;;;;;;;12.23;8.02;;;;;;;1.49;84.12;99332.22;5086294;28;20052;-80
2020/12/31 16:45:37;;;;;;;12.88;8.57;;;;;;;1.49;84.11;99338.19;5070779;28;20020;-80
2020/12/31 16:48:03;;;;;;;12.88;8.18;;;;;;;1.52;84.41;99335.63;5068911;28;20122;-80
2020/12/31 16:50:28;;;;;;;13.45;9.27;;;;;;;1.50;84.69;99332.19;5086978;28;20044;-80
2020/12/31 16:52:55;;;;;;;14.63;8.68;;;;;;;1.53;84.93;99336.47;5086569;28;20099;-80
2020/12/31 16:55:21;;;;;;;13.70;8.95;;;;;;;1.49;84.56;99337.34;5085927;28;20028;-80
2020/12/31 16:57:46;;;;;;;13.20;9.02;;;;;;;1.50;85.01;99339.88;5085819;28;20094;-80
2020/12/31 17:00:12;;;;;;;14.65;8.95;;;;;;;1.51;84.71;99333.06;5086012;28;20088;-80
2020/12/31 17:02:37;;;;;;;15.00;9.77;;;;;;;1.49;84.60;99335.63;5102916;28;20024;-80
2020/12/31 17:05:03;;;;;;;14.73;10.45;;;;;;;1.46;85.15;99333.06;5067838;28;20111;-80
2020/12/31 17:07:28;;;;;;;13.77;10.27;;;;;;;1.47;84.65;99337.31;5103829;28;20111;-80
2020/12/31 17:09:54;;;;;;;15.25;10.70;;;;;;;1.49;85.28;99334.78;5085793;28;20115;-80
2020/12/31 17:12:20;;;;;;;17.05;10.63;;;;;;;1.50;85.01;99339.88;5085075;28;20020;-80
2020/12/31 17:14:45;;;;;;;14.82;9.88;;;;;;;1.48;85.12;99336.47;5068963;28;20055;-80
2020/12/31 17:17:11;;;;;;;14.73;10.75;;;;;;;1.51;85.32;99340.72;5068207;28;20107;-80
2020/12/31 17:19:36;;;;;;;16.15;10.30;;;;;;;1.49;84.98;99340.72;5084521;28;20114;-80
2020/12/31 17:22:01;;;;;;;15.77;9.88;;;;;;;1.49;84.98;99345.00;5086395;28;20024;-80
2020/12/31 17:24:27;;;;;;;13.63;9.20;;;;;;;1.50;85.14;99344.97;5084929;28;20104;-80
2020/12/31 17:26:52;;;;;;;14.25;9.85;;;;;;;1.49;85.50;99350.09;5084904;28;20107;-80
2020/12/31 17:29:18;;;;;;;13.43;9.18;;;;;;;1.48;85.29;99349.25;5085421;28;20027;-79
2020/12/31 17:31:43;;;;;;;14.25;9.52;;;;;;;1.48;85.55;99346.69;5067512;28;20051;-79
2020/12/31 17:34:09;;;;;;;14.07;9.50;;;;;;;1.51;85.21;99354.38;5083765;28;20023;-79
2020/12/31 17:36:35;;;;;;;13.48;8.68;;;;;;;1.52;85.15;99356.06;5068044;28;20115;-80
2020/12/31 17:39:00;;;;;;;12.60;8.88;;;;;;;1.53;84.94;99357.75;5082493;28;20529;-80
2020/12/31 17:41:26;;;;;;;11.45;8.27;;;;;;;1.53;85.39;99356.91;5084287;28;20028;-79
2020/12/31 17:43:51;;;;;;;13.23;8.68;;;;;;;1.56;84.90;99355.19;5099857;28;20075;-80
2020/12/31 17:46:18;;;;;;;13.68;8.75;;;;;;;1.50;85.20;99352.66;5085323;28;20088;-80
2020/12/31 17:48:43;;;;;;;12.73;8.90;;;;;;;1.52;84.85;99350.94;5085099;28;20026;-79
2020/12/31 17:51:13;;;;;;;13.23;8.63;;;;;;;1.53;84.95;99355.19;5103383;28;20028;-79
2020/12/31 17:53:38;;;;;;;13.02;8.60;;;;;;;1.52;85.14;99358.63;5084116;28;20483;-79
2020/12/31 17:56:04;;;;;;;11.70;7.60;;;;;;;1.53;84.57;99362.00;5100520;28;20084;-80
2020/12/31 17:58:29;;;;;;;13.13;9.15;;;;;;;1.55;84.65;99365.44;5101269;28;20020;-81
2020/12/31 18:00:54;;;;;;;12.43;8.73;;;;;;;1.54;85.10;99356.91;5084723;28;20099;-80
2020/12/31 18:03:20;;;;;;;12.90;8.30;;;;;;;1.56;84.92;99362.84;5083248;28;20099;-81
2020/12/31 18:05:49;;;;;;;12.00;8.73;;;;;;;1.57;85.19;99362.03;5066135;28;20091;-80
2020/12/31 18:08:15;;;;;;;12.10;8.25;;;;;;;1.53;84.86;99359.47;5083718;28;20046;-80
2020/12/31 18:10:40;;;;;;;12.55;8.57;;;;;;;1.52;84.67;99353.50;5082661;28;20559;-81
2020/12/31 18:13:05;;;;;;;13.57;8.45;;;;;;;1.50;84.93;99359.47;5083076;28;20092;-80
2020/12/31 18:15:31;;;;;;;12.27;8.30;;;;;;;1.51;84.69;99351.81;5066546;28;20119;-80
2020/12/31 18:17:59;;;;;;;15.45;9.13;;;;;;;1.51;84.99;99353.50;5082717;28;20095;-80
2020/12/31 18:20:25;;;;;;;13.25;8.57;;;;;;;1.51;85.59;99354.38;5067343;28;20028;-81
2020/12/31 18:22:50;;;;;;;10.93;8.23;;;;;;;1.50;84.80;99360.31;5066318;28;20024;-81
2020/12/31 18:25:15;;;;;;;13.65;8.50;;;;;;;1.50;85.22;99354.34;5098898;28;20111;-81
2020/12/31 18:27:41;;;;;;;12.05;8.43;;;;;;;1.49;84.87;99355.22;5066554;28;20168;-80
2020/12/31 18:30:10;;;;;;;11.65;8.30;;;;;;;1.49;85.33;99355.22;5084889;28;20031;-81
2020/12/31 18:32:35;;;;;;;13.23;8.52;;;;;;;1.51;85.33;99359.47;5083814;28;20016;-81
2020/12/31 18:35:01;;;;;;;13.68;8.85;;;;;;;1.50;85.34;99359.47;5065474;28;20019;-81
2020/12/31 18:37:27;;;;;;;11.63;8.05;;;;;;;1.50;85.38;99357.75;5065517;28;20411;-81
2020/12/31 18:39:52;;;;;;;12.75;8.50;;;;;;;1.52;84.92;99365.44;5065644;28;20106;-81
2020/12/31 18:42:17;;;;;;;18.60;12.35;;;;;;;1.51;85.12;99372.25;5098965;28;20498;-81
2020/12/31 18:44:43;;;;;;;29.95;15.60;;;;;;;1.54;84.70;99377.34;5082032;28;20028;-81
2020/12/31 18:47:11;;;;;;;18.90;11.75;;;;;;;1.55;84.75;99371.38;5064595;28;20119;-81
2020/12/31 18:49:40;;;;;;;13.40;9.10;;;;;;;1.53;84.81;99365.41;5081529;28;20024;-81
2020/12/31 18:52:15;;;;;;;12.40;8.15;;;;;;;1.56;85.20;99378.19;5064314;28;20024;-81
2020/12/31 18:54:47;;;;;;;13.77;8.13;;;;;;;1.53;84.44;99365.41;5082160;28;20019;-81
2020/12/31 18:57:19;;;;;;;11.45;7.82;;;;;;;1.54;84.99;99364.59;5083006;28;20024;-81
2020/12/31 18:59:45;;;;;;;14.20;7.97;;;;;;;1.49;85.21;99361.16;5065722;28;20115;-81
2020/12/31 19:02:11;;;;;;;14.13;9.25;;;;;;;1.50;85.71;99362.88;5065079;28;20020;-81
2020/12/31 19:04:36;;;;;;;13.25;9.13;;;;;;;1.48;85.12;99363.72;5081603;28;20024;-81
2020/12/31 19:07:03;;;;;;;12.35;9.23;;;;;;;1.48;85.85;99371.38;5065459;28;20024;-80
2020/12/31 19:09:28;;;;;;;12.43;8.02;;;;;;;1.44;85.61;99373.09;5081492;28;20020;-81
2020/12/31 19:11:54;;;;;;;11.82;8.35;;;;;;;1.41;85.54;99362.03;5064259;28;20024;-81
2020/12/31 19:14:20;;;;;;;12.48;8.38;;;;;;;1.40;85.55;99366.28;5065039;28;20016;-81
2020/12/31 19:16:45;;;;;;;12.55;8.63;;;;;;;1.37;86.17;99363.72;5081489;28;20024;-81
2020/12/31 19:19:10;;;;;;;14.57;8.55;;;;;;;1.25;85.92;99363.72;5082068;28;20116;-81
2020/12/31 19:21:36;;;;;;;13.45;9.52;;;;;;;1.14;86.79;99364.59;5081316;28;20095;-80
2020/12/31 19:24:02;;;;;;;13.70;9.57;;;;;;;0.96;87.11;99367.13;5064099;28;20413;-81
2020/12/31 19:26:28;;;;;;;12.88;9.25;;;;;;;1.00;87.45;99376.47;5098002;28;20024;-81
2020/12/31 19:28:53;;;;;;;12.65;8.95;;;;;;;1.03;87.30;99373.94;5082265;28;20165;-81
2020/12/31 19:31:19;;;;;;;13.02;9.07;;;;;;;0.88;87.50;99376.47;5064402;28;20028;-81
2020/12/31 19:33:44;;;;;;;13.30;8.65;;;;;;;0.64;88.01;99390.00;5082034;28;20032;-81
2020/12/31 19:36:10;;;;;;;15.02;9.20;;;;;;;0.61;88.43;99388.28;5098184;28;20104;-81
2020/12/31 19:38:36;;;;;;;13.57;9.80;;;;;;;0.54;89.10;99380.63;5097734;28;20020;-81
2020/12/31 19:41:02;;;;;;;14.32;9.13;;;;;;;0.40;88.96;99385.66;5081712;28;20034;-81
2020/12/31 19:43:27;;;;;;;14.88;9.23;;;;;;;0.39;89.64;99389.94;5082772;28;20016;-80
2020/12/31 19:45:53;;;;;;;15.07;9.20;;;;;;;0.20;89.22;99389.00;5096990;28;20157;-81
2020/12/31 19:48:18;;;;;;;14.35;9.25;;;;;;;0.34;90.04;99386.53;5080148;28;20107;-80
2020/12/31 19:50:43;;;;;;;14.63;9.90;;;;;;;0.18;89.95;99398.31;5080704;28;20111;-80
2020/12/31 19:53:09;;;;;;;16.13;10.02;;;;;;;-0.01;89.74;99389.75;5096905;28;20432;-80
2020/12/31 19:55:34;;;;;;;15.52;9.25;;;;;;;-0.06;90.39;99404.16;5080560;28;20111;-80
2020/12/31 19:57:59;;;;;;;16.58;10.30;;;;;;;0.00;90.20;99403.34;5079850;28;20079;-81
2020/12/31 20:00:25;;;;;;;19.40;11.82;;;;;;;0.05;90.73;99395.72;5079651;28;20051;-80
2020/12/31 20:02:50;;;;;;;22.30;12.32;;;;;;;0.15;90.47;99402.56;5079666;28;20042;-81
2020/12/31 20:05:15;;;;;;;23.45;15.38;;;;;;;0.08;90.92;99408.47;5062887;28;20020;-81
2020/12/31 20:07:41;;;;;;;24.85;15.10;;;;;;;0.17;90.69;99411.09;5080165;28;20142;-81
2020/12/31 20:10:07;;;;;;;20.58;13.73;;;;;;;0.22;90.73;99420.47;5096986;28;20111;-80
2020/12/31 20:12:32;;;;;;;18.67;11.75;;;;;;;0.27;90.66;99427.28;5082745;28;20028;-80
2020/12/31 20:14:58;;;;;;;19.17;11.23;;;;;;;0.42;90.57;99419.69;5066663;28;20051;-81
2020/12/31 20:17:24;;;;;;;18.92;11.80;;;;;;;0.35;90.13;99425.63;5067065;28;20119;-80
2020/12/31 20:19:50;;;;;;;19.73;12.05;;;;;;;0.39;90.29;99427.34;5083071;28;20400;-80
2020/12/31 20:22:15;;;;;;;18.55;11.68;;;;;;;0.37;90.58;99429.00;5066915;28;20030;-80
2020/12/31 20:24:41;;;;;;;22.85;12.20;;;;;;;0.38;90.38;99431.59;5083625;28;20028;-80
2020/12/31 20:27:06;;;;;;;19.35;11.60;;;;;;;0.50;89.95;99424.84;5100767;28;20111;-80
2020/12/31 20:29:32;;;;;;;19.35;11.65;;;;;;;0.52;90.36;99428.22;5082751;28;20497;-80
2020/12/31 20:32:06;;;;;;;19.00;11.15;;;;;;;0.56;90.08;99430.81;5067102;28;20494;-81
2020/12/31 20:34:32;;;;;;;16.47;10.77;;;;;;;0.58;89.80;99436.75;5083358;28;20016;-80
2020/12/31 20:36:57;;;;;;;17.95;10.80;;;;;;;0.63;90.01;99424.88;5066553;28;20026;-81
2020/12/31 20:39:23;;;;;;;16.85;10.40;;;;;;;0.69;89.77;99430.00;5066714;28;20112;-81
2020/12/31 20:41:48;;;;;;;19.38;12.20;;;;;;;0.77;89.18;99430.06;5100228;28;20047;-80
2020/12/31 20:44:14;;;;;;;18.48;12.02;;;;;;;0.74;89.08;99427.50;5083325;28;20020;-80
2020/12/31 20:46:40;;;;;;;15.75;10.60;;;;;;;0.80;89.48;99426.63;5100350;28;20024;-80
2020/12/31 20:49:06;;;;;;;19.08;12.00;;;;;;;0.83;88.85;99430.06;5066567;28;20045;-80
2020/12/31 20:51:31;;;;;;;19.27;12.25;;;;;;;0.81;89.24;99425.81;5083190;28;20501;-80
2020/12/31 20:53:57;;;;;;;17.63;11.40;;;;;;;0.82;89.11;99427.50;5083379;28;20051;-80
2020/12/31 20:56:22;;;;;;;16.60;11.60;;;;;;;0.71;89.63;99424.03;5083107;28;20043;-80
2020/12/31 20:58:48;;;;;;;19.35;12.38;;;;;;;0.57;89.62;99426.56;5065957;28;20023;-80
2020/12/31 21:01:14;;;;;;;20.42;12.02;;;;;;;0.55;89.57;99430.81;5065563;28;20016;-80
2020/12/31 21:03:40;;;;;;;19.95;11.88;;;;;;;0.47;89.83;99435.03;5098513;28;20117;-80
2020/12/31 21:06:05;;;;;;;19.35;12.20;;;;;;;0.44;90.21;99430.78;5081638;28;20081;-80
2020/12/31 21:08:30;;;;;;;19.27;12.18;;;;;;;0.50;89.97;99428.25;5064779;28;20103;-80
2020/12/31 21:10:56;;;;;;;21.15;13.13;;;;;;;0.57;90.04;99432.50;5064467;28;20030;-80
2020/12/31 21:13:21;;;;;;;18.17;11.30;;;;;;;0.49;90.18;99434.16;5082252;28;20486;-80
2020/12/31 21:15:46;;;;;;;22.98;12.85;;;;;;;0.41;90.01;99423.09;5065986;28;20118;-80
2020/12/31 21:18:12;;;;;;;18.20;11.20;;;;;;;0.50;90.32;99432.50;5102357;28;20019;-81
2020/12/31 21:20:37;;;;;;;22.42;12.20;;;;;;;0.61;90.26;99434.22;5084990;28;20087;-81
2020/12/31 21:23:02;;;;;;;21.45;12.80;;;;;;;0.52;89.97;99439.28;5065969;28;20088;-81
2020/12/31 21:25:28;;;;;;;20.10;12.80;;;;;;;0.43;90.10;99435.03;5083822;28;20028;-81
2020/12/31 21:27:53;;;;;;;21.55;13.68;;;;;;;0.45;90.38;99437.56;5082460;28;20024;-81
2020/12/31 21:30:19;;;;;;;27.27;15.00;;;;;;;0.42;90.08;99432.44;5083926;28;20034;-80
2020/12/31 21:32:45;;;;;;;22.13;12.93;;;;;;;0.40;90.31;99432.47;5084229;28;20039;-81
2020/12/31 21:35:10;;;;;;;23.45;13.63;;;;;;;0.42;90.56;99437.56;5083717;28;20158;-80
2020/12/31 21:37:36;;;;;;;23.55;14.18;;;;;;;0.48;90.55;99432.47;5083081;28;20027;-80
2020/12/31 21:40:01;;;;;;;20.83;13.60;;;;;;;0.56;90.08;99435.91;5082783;28;20103;-80
2020/12/31 21:42:26;;;;;;;22.63;15.07;;;;;;;0.58;90.37;99430.81;5083093;28;20395;-80
2020/12/31 21:44:52;;;;;;;17.50;9.90;;;;;;;0.54;89.88;99440.16;5082733;28;20102;-80
2020/12/31 21:47:17;;;;;;;31.92;20.15;;;;;;;0.60;90.21;99436.78;5082793;28;20128;-80
2020/12/31 21:49:42;;;;;;;27.70;18.98;;;;;;;0.65;89.99;99440.22;5065724;28;20123;-80
2020/12/31 21:52:09;;;;;;;29.58;16.73;;;;;;;0.68;89.54;99440.22;5083349;28;20102;-80
2020/12/31 21:54:34;;;;;;;22.27;15.25;;;;;;;0.67;89.75;99439.34;5066732;28;20020;-80
2020/12/31 21:57:01;;;;;;;25.35;16.50;;;;;;;0.67;89.88;99441.06;5083362;28;20096;-80
2020/12/31 21:59:27;;;;;;;21.05;14.20;;;;;;;0.73;89.55;99441.06;5084026;28;20027;-80
2020/12/31 22:01:52;;;;;;;22.92;15.10;;;;;;;0.79;89.45;99442.78;5066921;28;20056;-80
2020/12/31 22:04:17;;;;;;;25.83;16.95;;;;;;;0.83;89.15;99445.38;5065625;28;20041;-80
2020/12/31 22:06:49;;;;;;;19.75;12.75;;;;;;;0.84;88.84;99441.97;5081565;28;20098;-80
2020/12/31 22:09:14;;;;;;;20.42;13.60;;;;;;;0.86;89.03;99441.97;5079898;28;20027;-80
2020/12/31 22:11:40;;;;;;;26.65;15.07;;;;;;;0.90;88.44;99449.66;5063263;28;20118;-80
2020/12/31 22:14:05;;;;;;;17.88;11.80;;;;;;;0.89;88.80;99447.06;5062783;28;20020;-80
2020/12/31 22:16:31;;;;;;;19.55;12.50;;;;;;;0.93;88.48;99448.81;5079112;28;20027;-80
2020/12/31 22:18:56;;;;;;;20.48;13.35;;;;;;;1.00;88.17;99444.56;5079808;28;20102;-80
2020/12/31 22:21:22;;;;;;;17.75;12.48;;;;;;;1.00;88.74;99452.22;5062125;28;20028;-80
2020/12/31 22:23:48;;;;;;;17.88;12.43;;;;;;;1.02;88.12;99448.84;5062405;28;20020;-80
2020/12/31 22:26:13;;;;;;;18.50;12.50;;;;;;;1.01;88.27;99439.44;5078763;28;20122;-80
2020/12/31 22:28:39;;;;;;;19.10;12.50;;;;;;;0.99;88.73;99443.72;5080157;28;20103;-80
2020/12/31 22:31:05;;;;;;;19.45;12.18;;;;;;;0.99;88.71;99446.28;5081925;28;20031;-81
2020/12/31 22:33:31;;;;;;;23.17;12.48;;;;;;;0.95;88.36;99444.53;5079881;28;20093;-81
2020/12/31 22:35:56;;;;;;;20.67;12.57;;;;;;;0.91;89.01;99447.94;5081171;28;20051;-81
2020/12/31 22:38:21;;;;;;;17.20;11.95;;;;;;;0.97;88.23;99442.84;5081793;28;20496;-81
2020/12/31 22:40:47;;;;;;;21.15;12.70;;;;;;;0.98;88.59;99444.53;5064562;28;20106;-80
2020/12/31 22:43:12;;;;;;;17.98;12.13;;;;;;;1.00;88.24;99444.56;5079765;28;20087;-80
2020/12/31 22:45:38;;;;;;;18.65;11.75;;;;;;;1.03;88.24;99445.41;5063178;28;20016;-80
2020/12/31 22:48:06;;;;;;;18.38;12.73;;;;;;;1.05;88.04;99445.44;5062689;28;20502;-80
2020/12/31 22:50:33;;;;;;;30.17;19.85;;;;;;;1.05;87.99;99453.94;5079917;28;20460;-80
2020/12/31 22:52:58;;;;;;;22.65;13.88;;;;;;;1.03;88.10;99447.97;5064132;28;20020;-81
2020/12/31 22:55:23;;;;;;;17.60;11.85;;;;;;;1.02;88.36;99448.84;5081631;28;20111;-81
2020/12/31 22:57:52;;;;;;;20.67;12.77;;;;;;;1.01;88.65;99444.56;5064134;28;20070;-81
2020/12/31 23:00:18;;;;;;;21.20;13.10;;;;;;;0.95;88.74;99442.00;5065008;28;20015;-81
2020/12/31 23:02:43;;;;;;;18.00;12.35;;;;;;;0.90;89.07;99441.16;5078873;28;20162;-80
2020/12/31 23:05:09;;;;;;;22.92;15.27;;;;;;;0.85;88.69;99433.47;5082120;28;20508;-80
2020/12/31 23:07:36;;;;;;;20.10;13.27;;;;;;;0.83;88.81;99432.63;5067043;28;20036;-81
2020/12/31 23:10:03;;;;;;;21.15;14.57;;;;;;;0.74;89.17;99435.16;5082858;28;20027;-80
2020/12/31 23:12:29;;;;;;;34.45;21.75;;;;;;;0.76;89.01;99435.13;5081456;28;20024;-80
2020/12/31 23:14:54;;;;;;;34.55;23.15;;;;;;;0.74;88.93;99437.69;5081801;28;20022;-80
2020/12/31 23:17:19;;;;;;;31.48;20.58;;;;;;;0.75;88.90;99441.09;5081784;28;20107;-80
2020/12/31 23:19:46;;;;;;;25.65;15.73;;;;;;;0.73;89.01;99438.53;5065835;28;20551;-80
2020/12/31 23:22:11;;;;;;;25.33;17.45;;;;;;;0.73;89.22;99435.97;5081704;28;20020;-80
2020/12/31 23:24:37;;;;;;;26.45;17.58;;;;;;;0.74;89.27;99439.38;5081821;28;20057;-80
2020/12/31 23:27:02;;;;;;;26.17;16.88;;;;;;;0.82;89.17;99435.16;5065765;28;20111;-80
2020/12/31 23:29:27;;;;;;;40.65;25.77;;;;;;;0.85;88.72;99433.47;5082756;28;20028;-80
2020/12/31 23:31:53;;;;;;;25.42;16.08;;;;;;;0.85;88.98;99440.25;5066168;28;20079;-80
2020/12/31 23:34:18;;;;;;;21.90;14.82;;;;;;;0.85;88.97;99437.72;5066497;28;20514;-80
2020/12/31 23:36:44;;;;;;;22.05;14.65;;;;;;;0.83;88.87;99435.16;5100351;28;20071;-80
2020/12/31 23:39:10;;;;;;;25.38;17.77;;;;;;;0.83;89.11;99432.63;5083493;28;20035;-80
2020/12/31 23:41:36;;;;;;;21.75;14.93;;;;;;;0.85;88.73;99428.34;5066638;28;20020;-80
2020/12/31 23:44:01;;;;;;;22.13;14.27;;;;;;;0.89;88.13;99434.31;5065989;28;20084;-80
2020/12/31 23:46:31;;;;;;;20.80;13.77;;;;;;;0.93;88.28;99436.03;5085326;28;20024;-80
2020/12/31 23:48:56;;;;;;;20.67;13.10;;;;;;;0.92;88.39;99431.75;5103700;28;20020;-80
2020/12/31 23:51:23;;;;;;;17.80;12.35;;;;;;;0.91;87.95;99435.19;5103925;28;20097;-80
2020/12/31 23:53:48;;;;;;;19.67;12.88;;;;;;;0.93;88.06;99433.50;5070700;28;20020;-80
2020/12/31 23:56:13;;;;;;;17.80;11.35;;;;;;;0.96;88.18;99435.22;5087493;28;20079;-80
2020/12/31 23:58:39;;;;;;;19.27;11.95;;;;;;;0.93;87.98;99430.94;5086042;28;20110;-81
